Time;durP1;ratioP1;P1;durP2;ratioP2;P2;SDS_P1;SDS_P2;PMS_P1;PMS_P2;Temp;Humidity;BMP_temperature;BMP_pressure;BME280_temperature;BME280_humidity;BME280_pressure;Samples;Min_cycle;Max_cycle;Signal;HPM_P1;HPM_P2
2022/03/06 00:01:58;;;;;;;34.63;18.47;;;1.80;99.90;;;;;;5027783;28;20546;-68
2022/03/06 00:04:24;;;;;;;25.47;15.93;;;1.90;99.90;;;;;;5029521;28;20121;-68
2022/03/06 00:06:50;;;;;;;32.13;16.87;;;;;;;;;;5031584;28;20382;-68
2022/03/06 00:09:15;;;;;;;24.33;15.23;;;1.60;99.90;;;;;;5030973;28;20390;-68
2022/03/06 00:11:41;;;;;;;30.60;18.80;;;1.80;99.90;;;;;;5042764;28;20029;-68
2022/03/06 00:14:07;;;;;;;29.13;16.17;;;1.60;99.90;;;;;;5052179;28;20021;-68
2022/03/06 00:16:32;;;;;;;26.77;16.27;;;1.60;99.90;;;;;;5052466;28;20021;-68
2022/03/06 00:18:58;;;;;;;33.97;18.73;;;;;;;;;;5052490;28;20029;-68
2022/03/06 00:21:23;;;;;;;33.70;18.63;;;1.70;99.90;;;;;;5052474;28;20120;-68
2022/03/06 00:23:49;;;;;;;30.10;18.30;;;1.40;99.90;;;;;;5052326;28;20025;-68
2022/03/06 00:26:15;;;;;;;30.23;17.47;;;1.50;99.90;;;;;;5052246;28;20039;-68
2022/03/06 00:28:40;;;;;;;30.03;17.13;;;1.40;99.90;;;;;;5052265;28;20482;-68
2022/03/06 00:31:06;;;;;;;32.50;18.70;;;;;;;;;;5051658;28;20029;-68
2022/03/06 00:33:32;;;;;;;34.93;18.70;;;1.40;99.90;;;;;;5052347;28;20498;-68
2022/03/06 00:35:58;;;;;;;33.90;18.47;;;1.30;99.90;;;;;;5051934;28;20040;-67
2022/03/06 00:38:24;;;;;;;28.93;16.90;;;1.40;99.90;;;;;;5045432;28;20037;-68
2022/03/06 00:40:49;;;;;;;29.27;16.53;;;1.20;99.90;;;;;;5031797;28;20407;-67
2022/03/06 00:43:15;;;;;;;28.17;15.90;;;;;;;;;;5036317;28;20035;-67
2022/03/06 00:45:42;;;;;;;31.03;17.70;;;1.30;99.90;;;;;;5050419;28;20082;-68
2022/03/06 00:48:07;;;;;;;35.60;19.33;;;1.40;99.90;;;;;;5033829;28;20039;-67
2022/03/06 00:50:35;;;;;;;33.50;19.27;;;1.30;99.90;;;;;;5052094;28;20025;-68
2022/03/06 00:53:01;;;;;;;31.53;17.23;;;1.00;99.90;;;;;;5050481;28;20086;-69
2022/03/06 00:55:26;;;;;;;30.67;17.33;;;1.00;99.90;;;;;;5051757;28;20029;-70
2022/03/06 00:57:52;;;;;;;28.33;15.90;;;;;;;;;;5048938;28;20115;-70
2022/03/06 01:00:18;;;;;;;27.60;16.03;;;;;;;;;;5051308;28;20025;-69
2022/03/06 01:02:44;;;;;;;34.43;19.03;;;;;;;;;;5051676;28;20033;-69
2022/03/06 01:05:10;;;;;;;31.40;17.23;;;1.00;99.90;;;;;;5051485;28;20092;-70
2022/03/06 01:07:35;;;;;;;36.40;19.10;;;0.90;99.90;;;;;;5051777;28;20036;-69
2022/03/06 01:10:01;;;;;;;26.50;15.53;;;0.80;99.90;;;;;;5051704;28;20131;-69
2022/03/06 01:12:27;;;;;;;29.47;17.67;;;;;;;;;;5050707;28;20033;-69
2022/03/06 01:14:53;;;;;;;28.13;15.77;;;0.80;99.90;;;;;;5051505;28;20040;-69
2022/03/06 01:17:19;;;;;;;31.57;16.60;;;0.90;99.90;;;;;;5051371;28;20075;-69
2022/03/06 01:19:44;;;;;;;30.37;17.77;;;0.90;99.90;;;;;;5051520;28;20025;-69
2022/03/06 01:22:10;;;;;;;31.07;18.27;;;0.90;99.90;;;;;;5051101;28;20037;-69
2022/03/06 01:24:36;;;;;;;27.80;16.70;;;;;;;;;;5051375;28;20505;-69
2022/03/06 01:27:01;;;;;;;27.13;17.53;;;1.20;99.90;;;;;;5050426;28;20029;-69
2022/03/06 01:29:27;;;;;;;27.40;15.80;;;1.00;99.90;;;;;;5049934;28;20029;-69
2022/03/06 01:31:52;;;;;;;27.70;15.93;;;0.90;99.90;;;;;;5051184;28;20398;-69
2022/03/06 01:34:18;;;;;;;30.23;17.33;;;0.80;99.90;;;;;;5051176;28;20480;-69
2022/03/06 01:36:44;;;;;;;26.90;15.90;;;;;;;;;;5051078;28;20039;-69
2022/03/06 01:39:09;;;;;;;31.43;17.17;;;0.80;99.90;;;;;;5050843;28;20462;-67
2022/03/06 01:41:36;;;;;;;25.40;15.07;;;0.80;99.90;;;;;;5050293;28;20053;-69
2022/03/06 01:44:03;;;;;;;28.03;14.80;;;0.80;99.90;;;;;;5050572;28;20032;-69
2022/03/06 01:46:29;;;;;;;28.23;17.63;;;;;;;;;;5050659;28;20041;-69
2022/03/06 01:48:55;;;;;;;30.23;16.80;;;;;;;;;;5050769;28;20170;-69
2022/03/06 01:51:21;;;;;;;27.50;14.37;;;0.80;99.90;;;;;;5050880;28;20071;-69
2022/03/06 01:53:46;;;;;;;29.80;17.00;;;0.90;99.90;;;;;;5050852;28;20024;-69
2022/03/06 01:56:13;;;;;;;25.57;16.20;;;0.80;99.90;;;;;;5048640;28;20048;-69
2022/03/06 01:58:40;;;;;;;25.47;15.97;;;0.60;99.90;;;;;;5050769;28;20025;-69
2022/03/06 02:01:06;;;;;;;27.83;15.90;;;0.70;99.90;;;;;;5050391;28;20041;-69
2022/03/06 02:03:32;;;;;;;28.07;17.57;;;0.80;99.90;;;;;;5050468;28;20379;-69
2022/03/06 02:05:58;;;;;;;30.70;16.37;;;0.90;99.90;;;;;;5050400;28;20037;-69
2022/03/06 02:08:23;;;;;;;28.00;18.73;;;0.70;99.90;;;;;;5050566;28;20462;-69
2022/03/06 02:10:52;;;;;;;26.47;15.40;;;0.60;99.90;;;;;;5049725;28;20466;-69
2022/03/06 02:13:18;;;;;;;28.43;16.33;;;0.50;99.90;;;;;;5050474;28;20033;-67
2022/03/06 02:15:44;;;;;;;28.37;17.03;;;0.50;99.90;;;;;;5050282;28;20036;-68
2022/03/06 02:18:10;;;;;;;27.43;14.67;;;0.70;99.90;;;;;;5049996;28;20035;-68
2022/03/06 02:20:37;;;;;;;27.73;16.37;;;;;;;;;;5050261;28;20108;-68
2022/03/06 02:23:03;;;;;;;25.63;15.77;;;;;;;;;;5050050;28;20027;-68
2022/03/06 02:25:32;;;;;;;23.70;15.43;;;0.60;99.90;;;;;;5049799;28;20405;-68
2022/03/06 02:28:00;;;;;;;25.73;14.80;;;0.60;99.90;;;;;;5049578;28;20057;-68
2022/03/06 02:30:28;;;;;;;19.10;13.10;;;0.50;99.90;;;;;;5050260;28;20071;-68
2022/03/06 02:32:57;;;;;;;26.17;14.90;;;0.60;99.90;;;;;;5049748;28;20043;-68
2022/03/06 02:35:24;;;;;;;21.77;15.67;;;0.60;99.90;;;;;;5050153;28;20029;-68
2022/03/06 02:37:50;;;;;;;30.60;16.67;;;;;;;;;;5049715;28;20108;-68
2022/03/06 02:40:17;;;;;;;23.87;14.73;;;0.60;99.90;;;;;;5049480;28;20052;-67
2022/03/06 02:42:45;;;;;;;26.10;16.10;;;0.40;99.90;;;;;;5050014;28;20040;-68
2022/03/06 02:45:20;;;;;;;27.67;16.77;;;0.40;99.90;;;;;;5049652;28;20393;-68
2022/03/06 02:47:46;;;;;;;26.43;15.10;;;0.40;99.90;;;;;;5049407;28;20040;-68
2022/03/06 02:50:18;;;;;;;27.47;15.93;;;0.40;99.90;;;;;;5049183;28;20029;-68
2022/03/06 02:52:44;;;;;;;27.43;16.87;;;0.30;99.90;;;;;;5049954;28;20029;-68
2022/03/06 02:55:11;;;;;;;22.70;15.60;;;0.50;99.90;;;;;;5049225;28;20075;-68
2022/03/06 02:57:38;;;;;;;27.30;15.70;;;0.50;99.90;;;;;;5048527;28;20091;-68
2022/03/06 03:00:07;;;;;;;26.20;16.50;;;0.60;99.90;;;;;;5049597;28;20147;-68
2022/03/06 03:02:32;;;;;;;27.27;16.93;;;0.40;99.90;;;;;;5049876;28;20075;-68
2022/03/06 03:04:58;;;;;;;24.03;15.07;;;;;;;;;;5049456;28;20025;-68
2022/03/06 03:07:24;;;;;;;25.37;16.17;;;0.30;99.90;;;;;;5049875;28;20367;-68
2022/03/06 03:09:50;;;;;;;24.50;15.30;;;;;;;;;;5049200;28;20033;-68
2022/03/06 03:12:15;;;;;;;26.23;15.23;;;0.20;99.90;;;;;;5049566;28;20112;-68
2022/03/06 03:14:41;;;;;;;27.50;15.93;;;;;;;;;;5049781;28;20071;-68
2022/03/06 03:17:07;;;;;;;24.53;16.83;;;;;;;;;;5049247;28;20501;-68
2022/03/06 03:19:33;;;;;;;27.87;16.87;;;0.30;99.90;;;;;;5049656;28;20033;-68
2022/03/06 03:21:59;;;;;;;24.07;16.73;;;0.20;99.90;;;;;;5049389;28;20363;-68
2022/03/06 03:24:25;;;;;;;28.93;17.10;;;;;;;;;;5049210;28;20180;-68
2022/03/06 03:26:51;;;;;;;22.83;13.57;;;0.10;99.90;;;;;;5049111;28;20040;-68
2022/03/06 03:29:17;;;;;;;24.83;15.73;;;0.10;99.90;;;;;;5049318;28;20036;-68
2022/03/06 03:31:43;;;;;;;26.63;16.53;;;0.00;99.90;;;;;;5049623;28;20393;-68
2022/03/06 03:34:09;;;;;;;28.00;16.60;;;0.20;99.90;;;;;;5049010;28;20048;-68
2022/03/06 03:36:34;;;;;;;25.30;17.20;;;0.10;99.90;;;;;;5049400;28;20390;-67
2022/03/06 03:39:00;;;;;;;29.20;16.90;;;;;;;;;;5049004;28;20059;-68
2022/03/06 03:41:26;;;;;;;24.33;16.30;;;-0.10;99.90;;;;;;5052678;28;20056;-68
2022/03/06 03:43:52;;;;;;;26.20;16.40;;;;;;;;;;5053091;28;20079;-68
2022/03/06 03:46:18;;;;;;;23.10;15.20;;;0.00;99.90;;;;;;5053236;28;20025;-68
2022/03/06 03:48:46;;;;;;;31.70;16.70;;;-0.20;99.90;;;;;;5053154;28;20048;-68
2022/03/06 03:51:12;;;;;;;22.43;15.07;;;-0.10;99.90;;;;;;5052832;28;20025;-68
2022/03/06 03:53:38;;;;;;;27.50;15.67;;;-0.20;99.90;;;;;;5052760;28;20031;-68
2022/03/06 03:56:04;;;;;;;26.07;17.13;;;-0.20;99.90;;;;;;5052745;28;20025;-68
2022/03/06 03:58:30;;;;;;;24.93;15.23;;;;;;;;;;5051987;28;20029;-68
2022/03/06 04:00:57;;;;;;;26.60;15.43;;;;;;;;;;5052769;28;20120;-68
2022/03/06 04:03:23;;;;;;;24.10;15.33;;;-0.30;99.90;;;;;;5052731;28;20603;-68
2022/03/06 04:05:49;;;;;;;24.87;16.40;;;;;;;;;;5052575;28;20154;-68
2022/03/06 04:08:14;;;;;;;23.70;15.30;;;-0.40;99.90;;;;;;5052442;28;20125;-68
2022/03/06 04:10:40;;;;;;;23.57;15.57;;;-0.30;99.90;;;;;;5052921;28;20064;-68
2022/03/06 04:13:06;;;;;;;26.00;15.40;;;-0.30;99.90;;;;;;5052081;28;20075;-68
2022/03/06 04:15:31;;;;;;;23.20;14.30;;;-0.40;99.90;;;;;;5052538;28;20032;-68
2022/03/06 04:17:57;;;;;;;26.93;16.83;;;;;;;;;;5052498;28;20033;-68
2022/03/06 04:20:23;;;;;;;26.93;16.70;;;-0.20;99.90;;;;;;5052627;28;20033;-68
2022/03/06 04:22:49;;;;;;;23.83;16.37;;;;;;;;;;5051820;28;20041;-68
2022/03/06 04:25:15;;;;;;;24.47;15.17;;;-0.20;99.90;;;;;;5052507;28;20027;-67
2022/03/06 04:27:41;;;;;;;25.17;15.27;;;;;;;;;;5052490;28;20032;-68
2022/03/06 04:30:07;;;;;;;23.90;15.23;;;-0.30;99.90;;;;;;5051899;28;20792;-68
2022/03/06 04:32:33;;;;;;;25.30;16.60;;;-0.30;99.90;;;;;;5052173;28;20389;-68
2022/03/06 04:34:58;;;;;;;23.27;14.83;;;-0.30;99.90;;;;;;5052363;28;20021;-68
2022/03/06 04:37:24;;;;;;;27.27;15.90;;;;;;;;;;5051831;28;20390;-68
2022/03/06 04:39:50;;;;;;;24.23;14.77;;;-0.60;99.90;;;;;;5052080;28;20025;-68
2022/03/06 04:42:15;;;;;;;23.67;16.27;;;-0.30;99.90;;;;;;5051723;28;20456;-68
2022/03/06 04:44:41;;;;;;;24.57;15.70;;;-0.40;99.90;;;;;;5052005;28;20168;-68
2022/03/06 04:47:07;;;;;;;23.10;15.53;;;-0.30;99.90;;;;;;5051724;28;20389;-68
2022/03/06 04:49:32;;;;;;;24.13;15.73;;;-0.40;99.90;;;;;;5051976;28;20017;-68
2022/03/06 04:51:58;;;;;;;22.10;14.90;;;-0.60;99.90;;;;;;5051108;28;20036;-68
2022/03/06 04:54:25;;;;;;;22.30;15.57;;;;;;;;;;5051980;28;20025;-68
2022/03/06 04:56:51;;;;;;;22.57;15.60;;;-0.40;99.90;;;;;;5051326;28;20033;-68
2022/03/06 04:59:17;;;;;;;25.90;16.47;;;;;;;;;;5051878;28;20032;-68
2022/03/06 05:01:42;;;;;;;27.20;17.20;;;-0.60;99.90;;;;;;5051682;28;20037;-68
2022/03/06 05:04:08;;;;;;;26.87;17.37;;;-0.30;99.90;;;;;;5051555;28;20307;-68
2022/03/06 05:06:34;;;;;;;22.97;16.87;;;-0.50;99.90;;;;;;5051401;28;20516;-68
2022/03/06 05:09:00;;;;;;;28.80;17.40;;;;;;;;;;5051584;28;20033;-68
2022/03/06 05:11:25;;;;;;;24.23;16.03;;;-0.30;99.90;;;;;;5051357;28;20048;-68
2022/03/06 05:13:51;;;;;;;24.17;16.27;;;;;;;;;;5051256;28;20060;-68
2022/03/06 05:16:17;;;;;;;28.23;16.73;;;-0.60;99.90;;;;;;5051446;28;20033;-68
2022/03/06 05:18:42;;;;;;;23.03;15.57;;;-0.80;99.90;;;;;;5051509;28;20029;-68
2022/03/06 05:21:08;;;;;;;25.27;16.17;;;-0.60;99.90;;;;;;5050567;28;20164;-68
2022/03/06 05:23:33;;;;;;;23.70;15.80;;;-0.40;99.90;;;;;;5051493;28;20436;-70
2022/03/06 05:25:59;;;;;;;22.47;14.53;;;;;;;;;;5051108;28;20413;-68
2022/03/06 05:28:28;;;;;;;24.57;15.87;;;-0.70;99.90;;;;;;5051236;28;20029;-68
2022/03/06 05:30:54;;;;;;;23.37;15.27;;;;;;;;;;5050979;28;20048;-68
2022/03/06 05:33:20;;;;;;;25.97;17.07;;;-0.50;99.90;;;;;;5051215;28;20098;-68
2022/03/06 05:35:46;;;;;;;24.13;16.13;;;;;;;;;;5050793;28;20029;-68
2022/03/06 05:38:12;;;;;;;24.73;16.93;;;-0.50;99.90;;;;;;5050595;28;20033;-68
2022/03/06 05:40:37;;;;;;;23.93;15.40;;;;;;;;;;5038880;28;20056;-68
2022/03/06 05:43:03;;;;;;;23.53;15.53;;;-0.10;99.90;;;;;;5032976;28;20442;-68
2022/03/06 05:45:29;;;;;;;25.93;14.57;;;-0.50;99.90;;;;;;5031012;28;20160;-68
2022/03/06 05:47:54;;;;;;;24.23;16.00;;;-0.50;99.90;;;;;;5030822;28;20052;-68
2022/03/06 05:50:20;;;;;;;24.87;15.87;;;;;;;;;;5032768;28;20142;-68
2022/03/06 05:52:48;;;;;;;26.20;17.93;;;-0.60;99.90;;;;;;5030846;28;20032;-68
2022/03/06 05:55:14;;;;;;;24.33;14.97;;;-0.70;99.90;;;;;;5029676;28;20029;-68
2022/03/06 05:57:40;;;;;;;21.23;15.23;;;;;;;;;;5030807;28;20502;-68
2022/03/06 06:00:08;;;;;;;23.90;15.10;;;-0.60;99.90;;;;;;5030603;28;20340;-68
2022/03/06 06:02:43;;;;;;;20.13;13.73;;;-0.70;99.90;;;;;;5029686;28;20068;-68
2022/03/06 06:05:09;;;;;;;22.53;15.13;;;-0.80;99.90;;;;;;5031577;28;20038;-68
2022/03/06 06:07:35;;;;;;;22.07;15.27;;;-0.80;99.90;;;;;;5050619;28;20536;-68
2022/03/06 06:10:03;;;;;;;23.03;15.83;;;-0.80;99.90;;;;;;5050456;28;20052;-68
2022/03/06 06:12:29;;;;;;;24.80;15.67;;;-0.70;99.90;;;;;;5050399;28;20397;-68
2022/03/06 06:14:54;;;;;;;23.87;14.23;;;-0.80;99.90;;;;;;5050111;28;20055;-68
2022/03/06 06:17:20;;;;;;;24.70;14.70;;;-0.70;99.90;;;;;;5050052;28;20087;-68
2022/03/06 06:19:46;;;;;;;24.73;17.13;;;;;;;;;;5050408;28;20070;-68
2022/03/06 06:22:11;;;;;;;23.93;16.73;;;-0.60;99.90;;;;;;5049998;28;20500;-68
2022/03/06 06:24:37;;;;;;;25.50;16.30;;;-0.80;99.90;;;;;;5050449;28;20032;-68
2022/03/06 06:27:03;;;;;;;21.37;14.63;;;;;;;;;;5049752;28;20092;-68
2022/03/06 06:29:29;;;;;;;22.77;14.73;;;-0.70;99.90;;;;;;5050329;28;20099;-68
2022/03/06 06:31:55;;;;;;;28.90;17.37;;;;;;;;;;5049214;28;20013;-67
2022/03/06 06:34:21;;;;;;;22.67;15.73;;;-0.30;99.90;;;;;;5050117;28;20520;-68
2022/03/06 06:36:47;;;;;;;24.60;15.97;;;-0.70;99.90;;;;;;5049758;28;20060;-68
2022/03/06 06:39:13;;;;;;;26.40;16.10;;;-1.00;99.90;;;;;;5049721;28;20033;-68
2022/03/06 06:41:40;;;;;;;24.50;17.03;;;-0.60;99.90;;;;;;5049794;28;20443;-68
2022/03/06 06:44:06;;;;;;;23.70;17.77;;;-0.80;99.90;;;;;;5049705;28;20025;-68
2022/03/06 06:46:33;;;;;;;22.83;16.23;;;-0.70;99.90;;;;;;5049694;28;20075;-68
2022/03/06 06:48:58;;;;;;;23.40;16.10;;;-0.70;99.90;;;;;;5049880;28;20072;-68
2022/03/06 06:51:24;;;;;;;24.97;17.30;;;-0.90;99.90;;;;;;5050046;28;20520;-68
2022/03/06 06:53:49;;;;;;;20.63;15.23;;;-0.90;99.90;;;;;;5049565;28;20488;-68
2022/03/06 06:56:15;;;;;;;25.37;17.27;;;-0.70;99.90;;;;;;5049542;28;20044;-68
2022/03/06 06:58:41;;;;;;;27.97;18.63;;;;;;;;;;5050000;28;20393;-68
2022/03/06 07:01:07;;;;;;;31.53;20.07;;;-0.60;99.90;;;;;;5048960;28;20037;-67
2022/03/06 07:03:33;;;;;;;27.43;18.13;;;;;;;;;;5049968;28;20024;-68
2022/03/06 07:05:59;;;;;;;23.63;17.30;;;-0.80;99.90;;;;;;5049644;28;20082;-68
2022/03/06 07:08:25;;;;;;;28.73;18.00;;;-0.60;99.90;;;;;;5049829;28;20029;-68
2022/03/06 07:10:50;;;;;;;26.77;17.67;;;-0.70;99.90;;;;;;5049219;28;20051;-68
2022/03/06 07:13:16;;;;;;;27.97;17.17;;;;;;;;;;5049813;28;20029;-68
2022/03/06 07:15:42;;;;;;;25.27;17.90;;;-0.60;99.90;;;;;;5053507;28;20044;-68
2022/03/06 07:18:08;;;;;;;25.30;16.37;;;;;;;;;;5053464;28;20213;-68
2022/03/06 07:20:34;;;;;;;25.67;16.70;;;-0.40;99.90;;;;;;5053919;28;20029;-68
2022/03/06 07:23:00;;;;;;;25.77;16.87;;;;;;;;;;5053470;28;20041;-68
2022/03/06 07:25:26;;;;;;;26.57;16.60;;;-0.40;99.90;;;;;;5053410;28;20103;-68
2022/03/06 07:27:52;;;;;;;23.73;17.63;;;;;;;;;;5053286;28;20053;-68
2022/03/06 07:30:18;;;;;;;26.73;16.50;;;-0.20;99.90;;;;;;5053166;28;20454;-68
2022/03/06 07:32:45;;;;;;;21.27;15.17;;;-0.20;99.90;;;;;;5053587;28;20104;-68
2022/03/06 07:35:11;;;;;;;24.13;17.70;;;-0.20;99.90;;;;;;5053152;28;20418;-68
2022/03/06 07:37:37;;;;;;;21.63;16.97;;;-0.10;99.90;;;;;;5041747;28;20084;-68
2022/03/06 07:40:03;;;;;;;23.67;16.20;;;0.20;99.90;;;;;;5032949;28;20030;-68
2022/03/06 07:42:31;;;;;;;23.20;16.63;;;0.00;99.90;;;;;;5033594;28;20395;-69
2022/03/06 07:44:57;;;;;;;22.33;15.77;;;;;;;;;;5046035;28;20029;-67
2022/03/06 07:47:23;;;;;;;22.10;15.90;;;0.30;99.90;;;;;;5052545;28;20713;-67
2022/03/06 07:49:49;;;;;;;20.27;15.57;;;;;;;;;;5051876;28;20048;-68
2022/03/06 07:52:15;;;;;;;20.93;16.10;;;0.40;99.90;;;;;;5052183;28;20136;-67
2022/03/06 07:54:41;;;;;;;22.40;16.83;;;;;;;;;;5052317;28;20179;-67
2022/03/06 07:57:06;;;;;;;21.80;14.87;;;0.70;99.90;;;;;;5052106;28;20017;-68
2022/03/06 07:59:32;;;;;;;19.70;15.67;;;0.60;99.90;;;;;;5052372;28;20528;-69
2022/03/06 08:01:57;;;;;;;24.47;15.90;;;0.70;99.90;;;;;;5051348;28;20450;-68
2022/03/06 08:04:23;;;;;;;22.63;15.37;;;;;;;;;;5052272;28;20418;-68
2022/03/06 08:06:49;;;;;;;21.17;14.87;;;0.70;99.90;;;;;;5051822;28;20025;-68
2022/03/06 08:09:15;;;;;;;20.33;14.97;;;0.80;99.90;;;;;;5051361;28;20462;-68
2022/03/06 08:11:41;;;;;;;21.20;14.90;;;0.90;99.90;;;;;;5052448;28;20033;-68
2022/03/06 08:14:07;;;;;;;20.53;13.87;;;0.90;99.90;;;;;;5051564;28;20025;-68
2022/03/06 08:16:33;;;;;;;25.57;16.07;;;;;;;;;;5052629;28;20504;-68
2022/03/06 08:18:58;;;;;;;22.27;15.17;;;1.10;99.90;;;;;;5052444;28;20437;-68
2022/03/06 08:21:24;;;;;;;21.23;13.90;;;;;;;;;;5052490;28;20063;-68
2022/03/06 08:23:51;;;;;;;21.93;14.37;;;;;;;;;;5052119;28;20033;-68
2022/03/06 08:26:17;;;;;;;21.97;15.30;;;;;;;;;;5051694;28;20037;-68
2022/03/06 08:28:43;;;;;;;17.70;13.13;;;;;;;;;;5051449;28;20029;-68
2022/03/06 08:31:09;;;;;;;16.83;13.10;;;1.30;99.90;;;;;;5051846;28;20040;-68
2022/03/06 08:33:35;;;;;;;16.80;13.00;;;;;;;;;;5052218;28;20031;-68
2022/03/06 08:36:01;;;;;;;19.97;13.00;;;;;;;;;;5052187;28;20116;-68
2022/03/06 08:38:27;;;;;;;16.63;11.97;;;1.90;99.90;;;;;;5052241;28;20031;-68
2022/03/06 08:40:52;;;;;;;18.53;12.97;;;1.90;99.90;;;;;;5051996;28;20045;-68
2022/03/06 08:43:18;;;;;;;20.97;11.63;;;1.60;99.90;;;;;;5051819;28;20064;-68
2022/03/06 08:45:44;;;;;;;20.47;13.80;;;;;;;;;;5052066;28;20021;-68
2022/03/06 08:48:09;;;;;;;15.63;12.33;;;2.10;99.90;;;;;;5051659;28;20389;-68
2022/03/06 08:50:35;;;;;;;17.60;12.47;;;1.90;99.90;;;;;;5052141;28;20040;-68
2022/03/06 08:53:01;;;;;;;15.17;11.97;;;1.90;99.90;;;;;;5051701;28;20033;-68
2022/03/06 08:55:27;;;;;;;17.23;11.97;;;;;;;;;;5051958;28;20108;-68
2022/03/06 08:57:52;;;;;;;15.47;12.37;;;2.10;99.90;;;;;;5051418;28;20028;-68
2022/03/06 09:00:18;;;;;;;16.47;12.53;;;2.00;99.90;;;;;;5052002;28;20044;-68
2022/03/06 09:02:43;;;;;;;17.70;12.13;;;2.40;99.90;;;;;;5051884;28;20036;-68
2022/03/06 09:05:09;;;;;;;15.80;11.87;;;2.40;99.90;;;;;;5051583;28;20051;-69
2022/03/06 09:07:35;;;;;;;14.27;11.47;;;2.50;99.90;;;;;;5051671;28;20078;-68
2022/03/06 09:10:00;;;;;;;17.47;11.77;;;2.90;99.90;;;;;;5051692;28;20477;-68
2022/03/06 09:12:26;;;;;;;13.83;11.17;;;;;;;;;;5051160;28;20024;-67
2022/03/06 09:14:55;;;;;;;14.03;10.43;;;2.90;99.90;;;;;;5051454;28;20082;-68
2022/03/06 09:17:21;;;;;;;14.87;10.63;;;2.70;99.90;;;;;;5051633;28;20539;-68
2022/03/06 09:19:46;;;;;;;13.10;10.83;;;2.80;99.90;;;;;;5051548;28;20061;-69
2022/03/06 09:22:12;;;;;;;12.80;9.97;;;3.40;99.90;;;;;;5051305;28;20060;-68
2022/03/06 09:24:37;;;;;;;12.83;10.67;;;2.90;99.90;;;;;;5051406;28;20029;-68
2022/03/06 09:27:03;;;;;;;10.43;9.00;;;2.90;99.90;;;;;;5050536;28;20028;-68
2022/03/06 09:29:29;;;;;;;13.60;9.77;;;;;;;;;;5051164;28;20462;-68
2022/03/06 09:31:55;;;;;;;12.63;10.77;;;3.10;99.90;;;;;;5050864;28;20425;-68
2022/03/06 09:34:21;;;;;;;12.70;9.43;;;;;;;;;;5051170;28;20037;-69
2022/03/06 09:36:47;;;;;;;11.67;8.77;;;;;;;;;;5051174;28;20128;-68
2022/03/06 09:39:13;;;;;;;13.83;9.67;;;3.30;99.90;;;;;;5050943;28;20033;-68
2022/03/06 09:41:39;;;;;;;10.50;9.40;;;3.30;99.90;;;;;;5050147;28;20394;-69
2022/03/06 09:44:12;;;;;;;12.93;8.80;;;3.20;99.90;;;;;;5050115;28;20118;-68
2022/03/06 09:46:39;;;;;;;13.00;9.43;;;3.60;99.90;;;;;;5050771;28;20029;-68
2022/03/06 09:49:06;;;;;;;11.13;9.07;;;3.60;99.90;;;;;;5050187;28;20033;-68
2022/03/06 09:51:38;;;;;;;12.33;8.57;;;3.60;99.90;;;;;;5050352;28;20025;-68
2022/03/06 09:54:05;;;;;;;9.90;7.73;;;3.90;99.90;;;;;;5049854;28;20390;-68
2022/03/06 09:56:31;;;;;;;11.40;8.73;;;4.40;99.90;;;;;;5049828;28;20039;-68
2022/03/06 09:58:56;;;;;;;11.90;8.80;;;4.00;99.90;;;;;;5050391;28;20161;-68
2022/03/06 10:01:22;;;;;;;9.90;7.93;;;;;;;;;;5050711;28;20697;-68
2022/03/06 10:03:48;;;;;;;10.27;7.90;;;;;;;;;;5049304;28;20033;-68
2022/03/06 10:06:14;;;;;;;14.27;8.77;;;;;;;;;;5050653;28;20381;-68
2022/03/06 10:08:39;;;;;;;10.50;7.57;;;4.10;99.90;;;;;;5050683;28;20025;-68
2022/03/06 10:11:10;;;;;;;11.63;7.60;;;4.20;99.90;;;;;;5049753;28;20025;-68
2022/03/06 10:13:45;;;;;;;10.37;7.67;;;4.20;99.90;;;;;;5050165;28;20119;-68
2022/03/06 10:16:15;;;;;;;7.90;7.10;;;4.20;99.90;;;;;;5050062;28;20056;-68
2022/03/06 10:18:40;;;;;;;10.47;8.40;;;;;;;;;;5050230;28;20036;-67
2022/03/06 10:21:09;;;;;;;11.40;8.10;;;4.50;99.90;;;;;;5049978;28;20028;-68
2022/03/06 10:23:35;;;;;;;11.93;7.53;;;4.50;99.50;;;;;;5050052;28;20025;-68
2022/03/06 10:26:07;;;;;;;11.13;6.80;;;4.40;99.90;;;;;;5049984;28;20104;-68
2022/03/06 10:28:46;;;;;;;9.20;7.77;;;4.60;99.90;;;;;;5050313;28;20108;-68
2022/03/06 10:31:12;;;;;;;7.93;6.37;;;4.50;99.90;;;;;;5049678;28;20052;-67
2022/03/06 10:33:38;;;;;;;9.43;7.10;;;3.80;98.20;;;;;;5050251;28;20500;-68
2022/03/06 10:36:07;;;;;;;8.87;7.27;;;4.70;99.90;;;;;;5049782;28;20420;-68
2022/03/06 10:38:34;;;;;;;8.80;7.47;;;4.70;98.20;;;;;;5049876;28;20817;-68
2022/03/06 10:41:17;;;;;;;10.03;7.60;;;4.60;99.90;;;;;;5049488;28;20041;-68
2022/03/06 10:43:43;;;;;;;10.60;6.30;;;4.70;99.90;;;;;;5049948;28;20033;-68
2022/03/06 10:46:19;;;;;;;8.87;6.93;;;5.00;97.90;;;;;;5049773;28;20382;-68
2022/03/06 10:48:55;;;;;;;8.90;7.03;;;4.80;96.90;;;;;;5049025;28;20033;-68
2022/03/06 10:51:21;;;;;;;13.77;8.47;;;;;;;;;;5030137;28;20036;-68
2022/03/06 10:53:55;;;;;;;8.90;7.13;;;4.90;99.90;;;;;;5029581;28;20057;-68
2022/03/06 10:56:21;;;;;;;12.10;7.10;;;5.00;99.90;;;;;;5038055;28;20386;-68
2022/03/06 10:58:48;;;;;;;7.50;6.07;;;5.20;99.90;;;;;;5049779;28;20029;-68
2022/03/06 11:01:14;;;;;;;10.60;7.27;;;5.10;95.80;;;;;;5049498;28;20550;-68
2022/03/06 11:03:40;;;;;;;9.67;7.60;;;5.10;99.90;;;;;;5049913;28;20044;-68
2022/03/06 11:06:08;;;;;;;11.70;7.47;;;5.30;99.90;;;;;;5049112;28;20456;-68
2022/03/06 11:08:34;;;;;;;10.43;6.50;;;5.50;99.90;;;;;;5049472;28;20025;-68
2022/03/06 11:11:00;;;;;;;9.33;6.37;;;;;;;;;;5048198;28;20381;-68
2022/03/06 11:13:31;;;;;;;11.30;6.60;;;5.30;99.90;;;;;;5049690;28;20033;-68
2022/03/06 11:15:58;;;;;;;8.87;7.13;;;5.40;99.90;;;;;;5049582;28;20028;-68
2022/03/06 11:18:25;;;;;;;8.80;7.27;;;5.50;99.90;;;;;;5049713;28;20077;-68
2022/03/06 11:20:52;;;;;;;11.00;7.20;;;5.30;99.90;;;;;;5049179;28;20066;-68
2022/03/06 11:23:40;;;;;;;8.63;7.13;;;5.30;99.80;;;;;;5049342;28;20079;-69
2022/03/06 11:26:15;;;;;;;9.10;7.23;;;5.20;94.70;;;;;;5049363;28;20025;-67
2022/03/06 11:29:05;;;;;;;8.97;7.20;;;5.50;99.20;;;;;;5049756;28;20021;-68
2022/03/06 11:31:48;;;;;;;9.17;7.07;;;5.50;91.00;;;;;;5049702;28;20044;-68
2022/03/06 11:34:28;;;;;;;8.30;7.03;;;5.50;98.50;;;;;;5049604;28;20107;-68
2022/03/06 11:36:55;;;;;;;7.87;6.43;;;5.60;98.60;;;;;;5048668;28;20056;-68
2022/03/06 11:39:45;;;;;;;8.27;6.70;;;5.70;90.70;;;;;;5049587;28;20064;-68
2022/03/06 11:42:52;;;;;;;8.87;6.80;;;5.70;97.90;;;;;;5048988;28;20063;-68
2022/03/06 11:45:59;;;;;;;10.20;8.17;;;4.90;88.10;;;;;;5049316;28;20025;-68
2022/03/06 11:48:33;;;;;;;9.33;5.73;;;5.90;97.40;;;;;;5048903;28;20021;-68
2022/03/06 11:51:14;;;;;;;7.00;5.00;;;6.00;97.60;;;;;;5048661;28;20409;-68
2022/03/06 11:54:05;;;;;;;7.30;5.50;;;6.10;89.80;;;;;;5049342;28;20490;-68
2022/03/06 11:56:34;;;;;;;7.23;5.70;;;;;;;;;;5058777;28;20051;-68
2022/03/06 11:59:06;;;;;;;10.43;6.80;;;5.80;97.00;;;;;;5053500;28;20536;-68
2022/03/06 12:01:39;;;;;;;8.03;5.90;;;6.10;88.30;;;;;;5051290;28;20076;-68
2022/03/06 12:04:18;;;;;;;8.17;6.30;;;5.90;96.80;;;;;;5052587;28;20029;-68
2022/03/06 12:06:46;;;;;;;8.20;6.37;;;5.80;96.50;;;;;;5052308;28;20116;-68
2022/03/06 12:09:32;;;;;;;9.07;6.80;;;5.90;96.60;;;;;;5052588;28;20060;-68
2022/03/06 12:12:04;;;;;;;7.63;6.43;;;5.70;87.50;;;;;;5052686;28;20048;-68
2022/03/06 12:14:35;;;;;;;8.90;6.60;;;5.90;96.40;;;;;;5052774;28;20040;-68
2022/03/06 12:17:01;;;;;;;10.63;6.90;;;6.00;96.20;;;;;;5052555;28;20430;-68
2022/03/06 12:19:28;;;;;;;8.10;6.50;;;5.90;96.20;;;;;;5051726;28;20071;-68
2022/03/06 12:22:11;;;;;;;10.13;7.10;;;5.90;88.20;;;;;;5051683;28;20029;-69
2022/03/06 12:24:37;;;;;;;9.80;7.20;;;5.90;96.10;;;;;;5052662;28;20502;-68
2022/03/06 12:27:20;;;;;;;9.83;6.57;;;6.00;86.20;;;;;;5052201;28;20025;-68
2022/03/06 12:29:46;;;;;;;8.57;6.47;;;;;;;;;;5051055;28;20036;-68
2022/03/06 12:32:31;;;;;;;8.77;6.10;;;6.10;90.70;;;;;;5052120;28;20133;-68
2022/03/06 12:35:14;;;;;;;8.40;5.43;;;6.20;95.80;;;;;;5051672;28;20031;-68
2022/03/06 12:37:41;;;;;;;9.20;6.93;;;6.20;95.10;;;;;;5052049;28;20025;-68
2022/03/06 12:40:09;;;;;;;10.53;7.53;;;6.00;86.00;;;;;;5051648;28;20103;-68
2022/03/06 12:42:36;;;;;;;9.13;7.43;;;6.20;95.20;;;;;;5050612;28;20076;-69
2022/03/06 12:45:06;;;;;;;9.77;7.23;;;5.90;95.10;;;;;;5052083;28;20056;-68
2022/03/06 12:47:33;;;;;;;8.17;6.63;;;5.80;95.20;;;;;;5052179;28;20567;-69
2022/03/06 12:49:59;;;;;;;7.83;6.30;;;6.40;95.50;;;;;;5051635;28;20060;-68
2022/03/06 12:52:26;;;;;;;7.93;6.73;;;5.80;95.00;;;;;;5051517;28;20028;-68
2022/03/06 12:54:53;;;;;;;8.63;6.80;;;5.80;95.30;;;;;;5051686;28;20068;-69
2022/03/06 12:57:20;;;;;;;10.87;6.43;;;6.10;95.20;;;;;;5052079;28;20151;-68
2022/03/06 12:59:49;;;;;;;7.33;5.53;;;6.00;95.00;;;;;;5052246;28;20440;-69
2022/03/06 13:02:19;;;;;;;10.70;6.53;;;6.10;94.70;;;;;;5051658;28;20574;-68